sensor_id;sensor_type;location;lat;lon;timestamp;pressure;altitude;pressure_sealevel;temperature;humidity
18500;BME280;9379;52.134;11.576;2023-08-20T01:20:51;101328.38;;;27.75;92.88
18500;BME280;9379;52.134;11.576;2023-08-20T01:26:50;101326.88;;;27.42;94.54
18500;BME280;9379;52.134;11.576;2023-08-20T01:29:39;101338.81;;;27.48;93.79
18500;BME280;9379;52.134;11.576;2023-08-20T01:32:06;101339.34;;;27.56;94.21
18500;BME280;9379;52.134;11.576;2023-08-20T01:34:34;101341.09;;;27.14;96.12
18500;BME280;9379;52.134;11.576;2023-08-20T01:37:01;101338.94;;;26.98;96.90
18500;BME280;9379;52.134;11.576;2023-08-20T01:39:28;101350.03;;;26.96;97.66
18500;BME280;9379;52.134;11.576;2023-08-20T01:41:56;101361.59;;;26.98;97.98
18500;BME280;9379;52.134;11.576;2023-08-20T01:44:24;101366.44;;;26.71;99.37
18500;BME280;9379;52.134;11.576;2023-08-20T01:46:54;101361.25;;;26.88;98.50
18500;BME280;9379;52.134;11.576;2023-08-20T01:49:20;101365.44;;;26.66;99.38
18500;BME280;9379;52.134;11.576;2023-08-20T01:51:47;101371.84;;;26.78;99.30
18500;BME280;9379;52.134;11.576;2023-08-20T01:54:14;101373.75;;;26.96;98.36
18500;BME280;9379;52.134;11.576;2023-08-20T01:56:41;101371.38;;;27.06;97.92
18500;BME280;9379;52.134;11.576;2023-08-20T01:59:08;101378.28;;;26.84;98.68
18500;BME280;9379;52.134;11.576;2023-08-20T02:01:35;101381.47;;;26.81;99.38
18500;BME280;9379;52.134;11.576;2023-08-20T02:04:04;101380.03;;;27.03;97.96
18500;BME280;9379;52.134;11.576;2023-08-20T02:06:33;101383.13;;;26.82;98.84
18500;BME280;9379;52.134;11.576;2023-08-20T02:09:00;101384.56;;;26.84;98.46
18500;BME280;9379;52.134;11.576;2023-08-20T02:11:28;101377.53;;;27.20;96.91
18500;BME280;9379;52.134;11.576;2023-08-20T02:14:02;101382.91;;;27.08;97.18
18500;BME280;9379;52.134;11.576;2023-08-20T02:16:29;101393.00;;;27.08;97.90
18500;BME280;9379;52.134;11.576;2023-08-20T02:18:56;101389.88;;;26.79;99.08
18500;BME280;9379;52.134;11.576;2023-08-20T02:21:25;101390.50;;;26.56;100.00
18500;BME280;9379;52.134;11.576;2023-08-20T02:23:52;101400.34;;;26.82;99.67
18500;BME280;9379;52.134;11.576;2023-08-20T02:26:18;101401.44;;;26.99;99.03
18500;BME280;9379;52.134;11.576;2023-08-20T02:28:45;101399.78;;;27.23;97.30
18500;BME280;9379;52.134;11.576;2023-08-20T02:31:12;101399.97;;;26.97;98.35
18500;BME280;9379;52.134;11.576;2023-08-20T02:33:39;101398.84;;;27.11;97.78
18500;BME280;9379;52.134;11.576;2023-08-20T02:36:06;101398.94;;;26.98;97.86
18500;BME280;9379;52.134;11.576;2023-08-20T02:38:34;101394.94;;;27.00;97.80
18500;BME280;9379;52.134;11.576;2023-08-20T02:41:01;101404.22;;;27.18;97.68
18500;BME280;9379;52.134;11.576;2023-08-20T02:43:29;101394.75;;;27.20;96.84
18500;BME280;9379;52.134;11.576;2023-08-20T02:45:56;101409.84;;;27.23;97.41
18500;BME280;9379;52.134;11.576;2023-08-20T02:48:23;101410.84;;;27.47;96.48
18500;BME280;9379;52.134;11.576;2023-08-20T02:50:52;101404.47;;;27.53;95.95
18500;BME280;9379;52.134;11.576;2023-08-20T02:53:19;101398.63;;;27.49;96.59
18500;BME280;9379;52.134;11.576;2023-08-20T02:55:48;101404.09;;;27.49;96.17
18500;BME280;9379;52.134;11.576;2023-08-20T02:58:16;101391.81;;;27.58;95.15
18500;BME280;9379;52.134;11.576;2023-08-20T03:00:42;101395.22;;;27.36;96.20
18500;BME280;9379;52.134;11.576;2023-08-20T03:03:10;101388.84;;;27.42;95.79
18500;BME280;9379;52.134;11.576;2023-08-20T03:05:37;101394.25;;;27.48;96.13
18500;BME280;9379;52.134;11.576;2023-08-20T03:08:05;101388.25;;;27.40;97.42
18500;BME280;9379;52.134;11.576;2023-08-20T03:10:33;101391.81;;;27.58;95.37
18500;BME280;9379;52.134;11.576;2023-08-20T03:13:03;101395.00;;;27.37;96.30
18500;BME280;9379;52.134;11.576;2023-08-20T03:15:30;101394.00;;;27.50;95.73
18500;BME280;9379;52.134;11.576;2023-08-20T03:17:57;101394.31;;;27.42;96.97
18500;BME280;9379;52.134;11.576;2023-08-20T03:20:24;101401.91;;;27.40;96.03
18500;BME280;9379;52.134;11.576;2023-08-20T03:22:54;101397.38;;;27.33;96.44
18500;BME280;9379;52.134;11.576;2023-08-20T03:25:20;101390.44;;;27.49;95.92
18500;BME280;9379;52.134;11.576;2023-08-20T03:27:48;101392.03;;;27.39;95.93
18500;BME280;9379;52.134;11.576;2023-08-20T03:30:16;101420.34;;;27.44;95.61
18500;BME280;9379;52.134;11.576;2023-08-20T03:32:43;101418.28;;;27.58;95.62
18500;BME280;9379;52.134;11.576;2023-08-20T03:35:10;101418.56;;;27.31;96.31
18500;BME280;9379;52.134;11.576;2023-08-20T03:37:37;101403.34;;;27.42;95.14
18500;BME280;9379;52.134;11.576;2023-08-20T03:40:05;101406.16;;;27.36;95.41
18500;BME280;9379;52.134;11.576;2023-08-20T03:42:32;101401.75;;;27.35;95.80
18500;BME280;9379;52.134;11.576;2023-08-20T03:44:59;101400.19;;;27.20;96.58
18500;BME280;9379;52.134;11.576;2023-08-20T03:47:28;101396.53;;;27.33;95.59
18500;BME280;9379;52.134;11.576;2023-08-20T03:49:55;101405.06;;;27.18;95.42
18500;BME280;9379;52.134;11.576;2023-08-20T03:52:22;101400.28;;;27.14;95.10
18500;BME280;9379;52.134;11.576;2023-08-20T03:54:49;101402.94;;;27.02;95.55
18500;BME280;9379;52.134;11.576;2023-08-20T03:57:16;101406.63;;;27.08;95.29
18500;BME280;9379;52.134;11.576;2023-08-20T03:59:43;101400.84;;;27.22;93.88
18500;BME280;9379;52.134;11.576;2023-08-20T04:02:14;101405.81;;;27.07;95.06
18500;BME280;9379;52.134;11.576;2023-08-20T04:04:43;101406.53;;;27.21;94.61
18500;BME280;9379;52.134;11.576;2023-08-20T04:07:10;101412.81;;;27.21;93.94
18500;BME280;9379;52.134;11.576;2023-08-20T04:09:37;101416.44;;;26.90;93.57
18500;BME280;9379;52.134;11.576;2023-08-20T04:12:06;101416.06;;;27.12;92.39
18500;BME280;9379;52.134;11.576;2023-08-20T04:14:33;101422.88;;;26.96;92.45
18500;BME280;9379;52.134;11.576;2023-08-20T04:17:00;101426.19;;;27.04;91.87
18500;BME280;9379;52.134;11.576;2023-08-20T04:19:27;101428.09;;;26.97;92.69
18500;BME280;9379;52.134;11.576;2023-08-20T04:21:55;101423.06;;;27.01;92.85
18500;BME280;9379;52.134;11.576;2023-08-20T04:24:22;101434.84;;;27.01;92.44
18500;BME280;9379;52.134;11.576;2023-08-20T04:26:49;101423.28;;;26.99;91.83
18500;BME280;9379;52.134;11.576;2023-08-20T04:29:16;101438.00;;;26.98;92.02
18500;BME280;9379;52.134;11.576;2023-08-20T04:31:44;101429.16;;;26.96;92.26
18500;BME280;9379;52.134;11.576;2023-08-20T04:34:11;101430.84;;;26.97;92.69
18500;BME280;9379;52.134;11.576;2023-08-20T04:36:38;101434.84;;;27.01;91.65
18500;BME280;9379;52.134;11.576;2023-08-20T04:39:07;101437.28;;;27.10;91.07
18500;BME280;9379;52.134;11.576;2023-08-20T04:41:34;101444.19;;;27.12;89.65
18500;BME280;9379;52.134;11.576;2023-08-20T04:44:01;101433.97;;;27.01;91.21
18500;BME280;9379;52.134;11.576;2023-08-20T04:46:30;101410.66;;;27.05;89.28
18500;BME280;9379;52.134;11.576;2023-08-20T04:48:57;101420.06;;;27.09;88.91
18500;BME280;9379;52.134;11.576;2023-08-20T04:51:26;101424.84;;;27.14;88.82
18500;BME280;9379;52.134;11.576;2023-08-20T04:53:53;101431.97;;;27.15;89.37
18500;BME280;9379;52.134;11.576;2023-08-20T04:56:22;101452.88;;;27.02;89.65
18500;BME280;9379;52.134;11.576;2023-08-20T04:58:49;101442.09;;;26.83;89.33
18500;BME280;9379;52.134;11.576;2023-08-20T05:01:15;101433.34;;;26.74;89.61
18500;BME280;9379;52.134;11.576;2023-08-20T05:03:43;101457.81;;;26.87;89.93
18500;BME280;9379;52.134;11.576;2023-08-20T05:06:10;101464.13;;;27.13;88.50
18500;BME280;9379;52.134;11.576;2023-08-20T05:08:37;101461.66;;;27.04;89.10
18500;BME280;9379;52.134;11.576;2023-08-20T05:11:06;101471.53;;;26.74;90.04
18500;BME280;9379;52.134;11.576;2023-08-20T05:13:35;101468.16;;;26.79;90.78
18500;BME280;9379;52.134;11.576;2023-08-20T05:16:05;101473.53;;;26.85;90.38
18500;BME280;9379;52.134;11.576;2023-08-20T05:18:31;101482.41;;;26.81;90.55
18500;BME280;9379;52.134;11.576;2023-08-20T05:21:01;101479.63;;;26.87;89.36
18500;BME280;9379;52.134;11.576;2023-08-20T05:23:28;101490.09;;;26.90;89.15
18500;BME280;9379;52.134;11.576;2023-08-20T05:25:55;101485.66;;;26.64;89.35
18500;BME280;9379;52.134;11.576;2023-08-20T05:28:22;101484.47;;;26.54;90.74
18500;BME280;9379;52.134;11.576;2023-08-20T05:30:56;101483.22;;;26.50;89.78
18500;BME280;9379;52.134;11.576;2023-08-20T05:33:23;101487.84;;;26.81;88.57
18500;BME280;9379;52.134;11.576;2023-08-20T05:35:50;101502.59;;;26.73;89.04
18500;BME280;9379;52.134;11.576;2023-08-20T05:38:18;101492.88;;;26.52;90.46
18500;BME280;9379;52.134;11.576;2023-08-20T05:40:46;101489.34;;;26.45;89.17
18500;BME280;9379;52.134;11.576;2023-08-20T05:43:13;101497.13;;;26.41;88.63
18500;BME280;9379;52.134;11.576;2023-08-20T05:45:39;101509.63;;;26.56;88.12
18500;BME280;9379;52.134;11.576;2023-08-20T05:48:08;101519.91;;;26.54;89.27
18500;BME280;9379;52.134;11.576;2023-08-20T05:50:35;101523.56;;;26.41;89.70
18500;BME280;9379;52.134;11.576;2023-08-20T05:53:02;101526.59;;;26.58;89.14
18500;BME280;9379;52.134;11.576;2023-08-20T05:55:30;101521.75;;;26.60;88.05
18500;BME280;9379;52.134;11.576;2023-08-20T05:57:57;101519.41;;;26.70;87.60
18500;BME280;9379;52.134;11.576;2023-08-20T06:00:25;101515.19;;;27.06;87.03
18500;BME280;9379;52.134;11.576;2023-08-20T06:02:52;101514.53;;;27.35;87.06
18500;BME280;9379;52.134;11.576;2023-08-20T06:05:21;101522.09;;;27.33;86.11
18500;BME280;9379;52.134;11.576;2023-08-20T06:07:49;101502.91;;;26.90;88.97
18500;BME280;9379;52.134;11.576;2023-08-20T06:10:16;101494.97;;;26.82;87.11
18500;BME280;9379;52.134;11.576;2023-08-20T06:12:43;101501.66;;;27.17;85.97
18500;BME280;9379;52.134;11.576;2023-08-20T06:15:10;101507.91;;;26.93;86.41
18500;BME280;9379;52.134;11.576;2023-08-20T06:17:38;101493.03;;;28.00;83.47
18500;BME280;9379;52.134;11.576;2023-08-20T06:20:05;101494.41;;;28.58;80.14
18500;BME280;9379;52.134;11.576;2023-08-20T06:22:35;101506.78;;;27.75;84.07
18500;BME280;9379;52.134;11.576;2023-08-20T06:25:03;101510.25;;;27.21;84.36
18500;BME280;9379;52.134;11.576;2023-08-20T06:27:31;101531.50;;;27.37;84.86
18500;BME280;9379;52.134;11.576;2023-08-20T06:29:58;101532.69;;;27.23;85.96
18500;BME280;9379;52.134;11.576;2023-08-20T06:32:25;101539.53;;;27.32;84.45
18500;BME280;9379;52.134;11.576;2023-08-20T06:34:52;101546.25;;;27.29;85.18
18500;BME280;9379;52.134;11.576;2023-08-20T06:37:19;101534.81;;;27.21;85.07
18500;BME280;9379;52.134;11.576;2023-08-20T06:39:50;101540.16;;;27.77;83.82
18500;BME280;9379;52.134;11.576;2023-08-20T06:42:17;101538.34;;;27.71;84.29
18500;BME280;9379;52.134;11.576;2023-08-20T06:44:45;101538.03;;;27.36;82.64
18500;BME280;9379;52.134;11.576;2023-08-20T06:47:12;101543.38;;;27.24;84.43
18500;BME280;9379;52.134;11.576;2023-08-20T06:49:40;101539.94;;;27.36;82.45
18500;BME280;9379;52.134;11.576;2023-08-20T06:52:07;101549.84;;;27.30;80.87
18500;BME280;9379;52.134;11.576;2023-08-20T06:54:34;101543.75;;;27.03;79.46
18500;BME280;9379;52.134;11.576;2023-08-20T06:57:04;101552.25;;;26.82;78.80
18500;BME280;9379;52.134;11.576;2023-08-20T06:59:32;101553.84;;;26.96;80.82
18500;BME280;9379;52.134;11.576;2023-08-20T07:01:59;101550.13;;;26.90;78.62
18500;BME280;9379;52.134;11.576;2023-08-20T07:04:29;101551.41;;;26.81;80.00
18500;BME280;9379;52.134;11.576;2023-08-20T07:06:58;101557.28;;;27.16;80.75
18500;BME280;9379;52.134;11.576;2023-08-20T07:09:26;101556.16;;;26.99;81.27
18500;BME280;9379;52.134;11.576;2023-08-20T07:11:53;101567.22;;;26.72;80.50
18500;BME280;9379;52.134;11.576;2023-08-20T07:14:22;101564.34;;;26.99;79.13
18500;BME280;9379;52.134;11.576;2023-08-20T07:16:51;101559.16;;;27.22;82.41
18500;BME280;9379;52.134;11.576;2023-08-20T07:19:18;101553.34;;;26.74;78.10
18500;BME280;9379;52.134;11.576;2023-08-20T07:21:46;101564.03;;;27.14;80.47
18500;BME280;9379;52.134;11.576;2023-08-20T07:24:14;101540.53;;;27.13;79.07
18500;BME280;9379;52.134;11.576;2023-08-20T07:26:41;101553.91;;;27.21;80.59
18500;BME280;9379;52.134;11.576;2023-08-20T07:29:08;101549.19;;;27.10;78.46
18500;BME280;9379;52.134;11.576;2023-08-20T07:31:36;101537.53;;;27.21;77.05
18500;BME280;9379;52.134;11.576;2023-08-20T07:34:04;101529.78;;;27.18;76.61
18500;BME280;9379;52.134;11.576;2023-08-20T07:36:31;101525.59;;;27.15;78.59
18500;BME280;9379;52.134;11.576;2023-08-20T07:39:02;101533.63;;;27.35;75.73
18500;BME280;9379;52.134;11.576;2023-08-20T07:41:35;101527.66;;;27.45;78.21
18500;BME280;9379;52.134;11.576;2023-08-20T07:44:02;101529.16;;;27.41;77.05
18500;BME280;9379;52.134;11.576;2023-08-20T07:46:30;101527.94;;;27.37;75.61
18500;BME280;9379;52.134;11.576;2023-08-20T07:48:58;101525.38;;;27.85;76.23
18500;BME280;9379;52.134;11.576;2023-08-20T07:51:25;101527.81;;;27.75;74.18
18500;BME280;9379;52.134;11.576;2023-08-20T07:53:52;101532.44;;;27.49;77.40
18500;BME280;9379;52.134;11.576;2023-08-20T07:56:20;101518.91;;;28.34;72.79
18500;BME280;9379;52.134;11.576;2023-08-20T07:58:48;101516.66;;;28.31;73.60
18500;BME280;9379;52.134;11.576;2023-08-20T08:01:18;101512.72;;;28.27;71.00
18500;BME280;9379;52.134;11.576;2023-08-20T08:03:45;101505.94;;;28.11;72.94
18500;BME280;9379;52.134;11.576;2023-08-20T08:06:14;101524.59;;;27.78;73.35
18500;BME280;9379;52.134;11.576;2023-08-20T08:08:43;101519.78;;;27.55;72.67
18500;BME280;9379;52.134;11.576;2023-08-20T08:11:11;101530.72;;;27.80;71.99
18500;BME280;9379;52.134;11.576;2023-08-20T08:13:38;101532.13;;;28.01;73.26
18500;BME280;9379;52.134;11.576;2023-08-20T08:16:06;101533.88;;;27.95;74.54
18500;BME280;9379;52.134;11.576;2023-08-20T08:18:33;101536.63;;;27.95;74.47
18500;BME280;9379;52.134;11.576;2023-08-20T08:21:00;101518.63;;;27.87;72.39
18500;BME280;9379;52.134;11.576;2023-08-20T08:23:29;101540.97;;;28.03;73.67
18500;BME280;9379;52.134;11.576;2023-08-20T08:25:56;101526.63;;;27.64;74.47
18500;BME280;9379;52.134;11.576;2023-08-20T08:28:23;101543.13;;;27.76;71.55
18500;BME280;9379;52.134;11.576;2023-08-20T08:30:50;101543.13;;;28.12;73.57
18500;BME280;9379;52.134;11.576;2023-08-20T08:33:17;101537.16;;;28.04;73.33
18500;BME280;9379;52.134;11.576;2023-08-20T08:35:44;101539.84;;;27.42;73.72
18500;BME280;9379;52.134;11.576;2023-08-20T08:38:11;101536.84;;;27.50;72.25
18500;BME280;9379;52.134;11.576;2023-08-20T08:40:40;101540.84;;;27.73;72.12
18500;BME280;9379;52.134;11.576;2023-08-20T08:43:10;101538.66;;;28.00;73.52
18500;BME280;9379;52.134;11.576;2023-08-20T08:45:43;101544.88;;;27.88;74.56
18500;BME280;9379;52.134;11.576;2023-08-20T08:48:12;101543.25;;;27.38;73.65
18500;BME280;9379;52.134;11.576;2023-08-20T08:50:40;101534.50;;;27.79;73.51
18500;BME280;9379;52.134;11.576;2023-08-20T08:53:08;101545.13;;;27.69;73.33
18500;BME280;9379;52.134;11.576;2023-08-20T08:55:35;101549.34;;;27.65;73.78
18500;BME280;9379;52.134;11.576;2023-08-20T08:58:05;101546.63;;;27.83;74.36
18500;BME280;9379;52.134;11.576;2023-08-20T09:00:32;101547.84;;;27.87;73.48
18500;BME280;9379;52.134;11.576;2023-08-20T09:02:59;101546.44;;;28.03;70.48
18500;BME280;9379;52.134;11.576;2023-08-20T09:05:26;101540.13;;;28.02;73.48
18500;BME280;9379;52.134;11.576;2023-08-20T09:07:55;101548.41;;;28.14;70.58
18500;BME280;9379;52.134;11.576;2023-08-20T09:10:25;101543.44;;;27.86;72.35
18500;BME280;9379;52.134;11.576;2023-08-20T09:12:54;101536.53;;;27.83;71.08
18500;BME280;9379;52.134;11.576;2023-08-20T09:15:31;101537.47;;;27.96;71.24
18500;BME280;9379;52.134;11.576;2023-08-20T09:18:00;101536.69;;;28.43;70.07
18500;BME280;9379;52.134;11.576;2023-08-20T09:20:35;101528.25;;;28.45;72.28
18500;BME280;9379;52.134;11.576;2023-08-20T09:23:03;101536.53;;;28.20;68.54
18500;BME280;9379;52.134;11.576;2023-08-20T09:25:30;101530.38;;;28.43;67.87
18500;BME280;9379;52.134;11.576;2023-08-20T09:27:57;101549.44;;;28.13;67.55
18500;BME280;9379;52.134;11.576;2023-08-20T09:30:26;101549.91;;;27.92;70.35
18500;BME280;9379;52.134;11.576;2023-08-20T09:33:07;101537.69;;;28.49;67.48
18500;BME280;9379;52.134;11.576;2023-08-20T09:35:36;101536.25;;;28.28;68.81
18500;BME280;9379;52.134;11.576;2023-08-20T09:38:03;101533.25;;;28.11;69.76
18500;BME280;9379;52.134;11.576;2023-08-20T09:40:30;101532.16;;;28.37;67.79
18500;BME280;9379;52.134;11.576;2023-08-20T09:42:57;101527.72;;;28.36;66.81
18500;BME280;9379;52.134;11.576;2023-08-20T09:45:28;101511.88;;;28.57;67.29
18500;BME280;9379;52.134;11.576;2023-08-20T09:47:55;101512.31;;;28.72;66.44
18500;BME280;9379;52.134;11.576;2023-08-20T09:50:24;101521.81;;;28.39;65.40
18500;BME280;9379;52.134;11.576;2023-08-20T09:52:57;101505.06;;;28.77;68.31
18500;BME280;9379;52.134;11.576;2023-08-20T09:55:29;101510.81;;;28.58;65.06
18500;BME280;9379;52.134;11.576;2023-08-20T09:57:58;101523.84;;;29.27;66.02
18500;BME280;9379;52.134;11.576;2023-08-20T10:00:27;101512.88;;;29.27;64.27
18500;BME280;9379;52.134;11.576;2023-08-20T10:02:54;101527.44;;;29.51;64.43
18500;BME280;9379;52.134;11.576;2023-08-20T10:05:23;101524.72;;;29.63;63.01
18500;BME280;9379;52.134;11.576;2023-08-20T10:07:50;101524.81;;;29.91;59.15
18500;BME280;9379;52.134;11.576;2023-08-20T10:10:17;101525.88;;;30.42;63.58
18500;BME280;9379;52.134;11.576;2023-08-20T10:12:45;101517.22;;;30.34;62.21
18500;BME280;9379;52.134;11.576;2023-08-20T10:15:14;101529.09;;;30.80;64.85
18500;BME280;9379;52.134;11.576;2023-08-20T10:17:44;101497.56;;;30.99;64.94
18500;BME280;9379;52.134;11.576;2023-08-20T10:20:13;101520.25;;;30.77;58.52
18500;BME280;9379;52.134;11.576;2023-08-20T10:22:43;101518.38;;;29.86;58.16
18500;BME280;9379;52.134;11.576;2023-08-20T10:25:11;101525.97;;;29.96;59.41
18500;BME280;9379;52.134;11.576;2023-08-20T10:27:39;101538.03;;;29.95;58.73
18500;BME280;9379;52.134;11.576;2023-08-20T10:30:08;101523.91;;;30.26;58.63
18500;BME280;9379;52.134;11.576;2023-08-20T10:32:47;101531.31;;;30.99;63.73
18500;BME280;9379;52.134;11.576;2023-08-20T10:35:16;101527.13;;;31.42;62.80
18500;BME280;9379;52.134;11.576;2023-08-20T10:38:04;101516.44;;;31.62;60.83
18500;BME280;9379;52.134;11.576;2023-08-20T10:40:47;101519.47;;;32.05;63.31
18500;BME280;9379;52.134;11.576;2023-08-20T10:43:28;101515.44;;;31.01;58.35
18500;BME280;9379;52.134;11.576;2023-08-20T10:46:13;101521.41;;;31.27;57.51
18500;BME280;9379;52.134;11.576;2023-08-20T10:48:43;101523.91;;;31.84;62.50
18500;BME280;9379;52.134;11.576;2023-08-20T10:51:14;101507.66;;;31.65;55.62
18500;BME280;9379;52.134;11.576;2023-08-20T10:53:43;101513.22;;;31.87;58.00
18500;BME280;9379;52.134;11.576;2023-08-20T10:56:16;101507.78;;;31.92;56.00
18500;BME280;9379;52.134;11.576;2023-08-20T10:58:45;101515.19;;;31.92;57.78
18500;BME280;9379;52.134;11.576;2023-08-20T11:01:13;101506.31;;;31.68;61.19
18500;BME280;9379;52.134;11.576;2023-08-20T11:03:42;101515.25;;;31.75;55.87
18500;BME280;9379;52.134;11.576;2023-08-20T11:06:10;101505.50;;;31.29;59.47
18500;BME280;9379;52.134;11.576;2023-08-20T11:08:37;101511.03;;;32.11;58.86
18500;BME280;9379;52.134;11.576;2023-08-20T11:11:05;101510.88;;;31.96;61.77
18500;BME280;9379;52.134;11.576;2023-08-20T11:13:33;101503.19;;;32.74;61.81
18500;BME280;9379;52.134;11.576;2023-08-20T11:16:01;101492.66;;;32.39;57.31
18500;BME280;9379;52.134;11.576;2023-08-20T11:18:30;101498.56;;;32.04;60.32
18500;BME280;9379;52.134;11.576;2023-08-20T11:21:00;101498.28;;;31.61;60.30
18500;BME280;9379;52.134;11.576;2023-08-20T11:23:28;101505.66;;;32.21;60.03
18500;BME280;9379;52.134;11.576;2023-08-20T11:25:56;101497.16;;;32.45;61.60
18500;BME280;9379;52.134;11.576;2023-08-20T11:28:25;101501.56;;;32.24;56.18
18500;BME280;9379;52.134;11.576;2023-08-20T11:30:53;101497.09;;;31.74;57.54
18500;BME280;9379;52.134;11.576;2023-08-20T11:33:20;101502.94;;;32.00;57.67
18500;BME280;9379;52.134;11.576;2023-08-20T11:35:47;101496.75;;;32.63;60.57
18500;BME280;9379;52.134;11.576;2023-08-20T11:38:16;101492.44;;;32.99;59.63
18500;BME280;9379;52.134;11.576;2023-08-20T11:40:43;101480.63;;;33.36;58.05
18500;BME280;9379;52.134;11.576;2023-08-20T11:43:10;101493.75;;;33.24;56.11
18500;BME280;9379;52.134;11.576;2023-08-20T11:45:48;101483.53;;;32.60;56.83
18500;BME280;9379;52.134;11.576;2023-08-20T11:48:16;101480.31;;;32.41;62.87
18500;BME280;9379;52.134;11.576;2023-08-20T11:50:44;101489.09;;;31.73;56.68
18500;BME280;9379;52.134;11.576;2023-08-20T11:53:11;101485.00;;;32.19;59.85
18500;BME280;9379;52.134;11.576;2023-08-20T11:55:50;101478.75;;;32.77;55.51
18500;BME280;9379;52.134;11.576;2023-08-20T11:58:18;101458.97;;;33.18;57.72
18500;BME280;9379;52.134;11.576;2023-08-20T12:00:48;101457.75;;;33.35;58.99
18500;BME280;9379;52.134;11.576;2023-08-20T12:03:20;101471.53;;;33.41;55.48
18500;BME280;9379;52.134;11.576;2023-08-20T12:05:47;101463.91;;;33.16;56.96
18500;BME280;9379;52.134;11.576;2023-08-20T12:08:16;101465.03;;;33.20;56.94
18500;BME280;9379;52.134;11.576;2023-08-20T12:10:45;101469.41;;;33.48;56.75
18500;BME280;9379;52.134;11.576;2023-08-20T12:13:12;101466.44;;;33.22;55.09
18500;BME280;9379;52.134;11.576;2023-08-20T12:15:41;101471.44;;;33.25;53.79
18500;BME280;9379;52.134;11.576;2023-08-20T12:18:08;101476.81;;;33.10;54.75
18500;BME280;9379;52.134;11.576;2023-08-20T12:20:35;101466.56;;;33.38;54.70
18500;BME280;9379;52.134;11.576;2023-08-20T12:23:05;101478.16;;;32.75;56.66
18500;BME280;9379;52.134;11.576;2023-08-20T12:25:34;101464.50;;;32.86;57.57
18500;BME280;9379;52.134;11.576;2023-08-20T12:28:04;101473.34;;;32.88;54.58
18500;BME280;9379;52.134;11.576;2023-08-20T12:30:31;101489.75;;;32.50;56.46
18500;BME280;9379;52.134;11.576;2023-08-20T12:32:59;101465.50;;;32.20;60.38
18500;BME280;9379;52.134;11.576;2023-08-20T12:35:26;101457.88;;;32.06;59.50
18500;BME280;9379;52.134;11.576;2023-08-20T12:37:53;101463.66;;;32.04;59.05
18500;BME280;9379;52.134;11.576;2023-08-20T12:40:20;101466.25;;;31.94;63.00
18500;BME280;9379;52.134;11.576;2023-08-20T12:42:47;101474.78;;;31.92;65.86
18500;BME280;9379;52.134;11.576;2023-08-20T12:45:16;101469.72;;;32.06;59.85
18500;BME280;9379;52.134;11.576;2023-08-20T12:47:44;101466.22;;;32.92;58.03
18500;BME280;9379;52.134;11.576;2023-08-20T12:50:11;101471.50;;;32.66;57.84
18500;BME280;9379;52.134;11.576;2023-08-20T12:52:39;101464.34;;;32.70;59.11
18500;BME280;9379;52.134;11.576;2023-08-20T12:55:06;101465.63;;;32.58;57.89
18500;BME280;9379;52.134;11.576;2023-08-20T12:57:34;101464.31;;;32.65;63.75
18500;BME280;9379;52.134;11.576;2023-08-20T13:00:03;101453.81;;;32.89;59.05
18500;BME280;9379;52.134;11.576;2023-08-20T13:06:00;101454.34;;;32.59;58.64
18500;BME280;9379;52.134;11.576;2023-08-20T13:18:33;101450.69;;;32.27;59.28
18500;BME280;9379;52.134;11.576;2023-08-20T13:21:02;101453.38;;;32.43;58.63
18500;BME280;9379;52.134;11.576;2023-08-20T13:23:32;101458.56;;;32.40;59.17
18500;BME280;9379;52.134;11.576;2023-08-20T13:25:59;101454.16;;;32.17;60.04
18500;BME280;9379;52.134;11.576;2023-08-20T13:28:27;101459.16;;;32.42;60.53
18500;BME280;9379;52.134;11.576;2023-08-20T13:30:53;101459.03;;;32.10;59.90
18500;BME280;9379;52.134;11.576;2023-08-20T13:33:20;101459.31;;;32.08;62.58
18500;BME280;9379;52.134;11.576;2023-08-20T13:35:47;101454.78;;;31.58;61.56
18500;BME280;9379;52.134;11.576;2023-08-20T13:38:16;101443.59;;;31.43;61.00
18500;BME280;9379;52.134;11.576;2023-08-20T13:40:44;101450.94;;;31.59;63.56
18500;BME280;9379;52.134;11.576;2023-08-20T13:43:11;101449.16;;;31.48;61.62
18500;BME280;9379;52.134;11.576;2023-08-20T13:45:38;101451.03;;;31.64;60.69
18500;BME280;9379;52.134;11.576;2023-08-20T13:48:09;101423.81;;;31.63;61.74
18500;BME280;9379;52.134;11.576;2023-08-20T13:50:36;101445.34;;;31.49;61.38
18500;BME280;9379;52.134;11.576;2023-08-20T13:53:06;101436.63;;;31.74;61.51
18500;BME280;9379;52.134;11.576;2023-08-20T13:55:35;101436.63;;;31.74;61.50
18500;BME280;9379;52.134;11.576;2023-08-20T13:58:02;101430.63;;;31.39;62.29
18500;BME280;9379;52.134;11.576;2023-08-20T14:00:30;101428.78;;;31.66;61.82
18500;BME280;9379;52.134;11.576;2023-08-20T14:02:57;101431.34;;;31.73;61.53
18500;BME280;9379;52.134;11.576;2023-08-20T14:05:24;101421.31;;;31.83;60.93
18500;BME280;9379;52.134;11.576;2023-08-20T14:07:51;101420.00;;;31.86;61.37
18500;BME280;9379;52.134;11.576;2023-08-20T14:10:18;101421.41;;;31.72;59.89
18500;BME280;9379;52.134;11.576;2023-08-20T14:12:47;101409.69;;;31.54;58.89
18500;BME280;9379;52.134;11.576;2023-08-20T14:15:14;101423.59;;;31.70;60.70
18500;BME280;9379;52.134;11.576;2023-08-20T14:17:41;101425.84;;;31.51;61.49
18500;BME280;9379;52.134;11.576;2023-08-20T14:20:09;101413.31;;;31.38;62.27
18500;BME280;9379;52.134;11.576;2023-08-20T14:22:36;101423.84;;;31.46;63.07
18500;BME280;9379;52.134;11.576;2023-08-20T14:25:04;101416.84;;;31.55;63.89
18500;BME280;9379;52.134;11.576;2023-08-20T14:27:31;101418.50;;;31.56;62.85
18500;BME280;9379;52.134;11.576;2023-08-20T14:30:00;101413.81;;;31.35;63.47
18500;BME280;9379;52.134;11.576;2023-08-20T14:32:28;101400.91;;;31.35;63.83